Time;durP1;ratioP1;P1;durP2;ratioP2;P2;SDS_P1;SDS_P2;PMS_P1;PMS_P2;Temp;Humidity;BMP_temperature;BMP_pressure;BME280_temperature;BME280_humidity;BME280_pressure;Samples;Min_cycle;Max_cycle;Signal;HPM_P1;HPM_P2
2022/01/23 00:00:03;;;;;;;;;;;;;;;;;;5074695;28;872;-79
2022/01/23 00:02:29;;;;;;;;;;;;;;;;;;5074052;28;868;-80
2022/01/23 00:04:54;;;;;;;;;;;;;;;;;;5055885;28;826;-80
2022/01/23 00:07:20;;;;;;;;;;;;;;;;;;5073622;28;841;-80
2022/01/23 00:09:45;;;;;;;;;;;;;;;;;;5080573;28;2918;-80
2022/01/23 00:12:18;;;;;;;;;;;;;;;;;;5112716;28;1898;-80
2022/01/23 00:17:34;;;;;;;;;;;;;;;;;;5094367;28;877;-80
2022/01/23 00:20:00;;;;;;;;;;;;;;;;;;5093802;28;882;-80
2022/01/23 00:22:35;;;;;;;;;;;;;;;;;;5093667;28;816;-80
2022/01/23 00:30:30;;;;;;;;;;;;;;;;;;5093498;28;685;-73
2022/01/23 00:32:56;;;;;;;;;;;;;;;;;;5093012;28;1910;-73
2022/01/23 00:35:22;;;;;;;;;;;;;;;;;;5074785;28;1227;-74
2022/01/23 00:37:47;;;;;;;;;;;;;;;;;;5093119;28;891;-74
2022/01/23 00:40:13;;;;;;;;;;;;;;;;;;5092428;28;1058;-74
2022/01/23 00:42:38;;;;;;;;;;;;;;;;;;5092909;28;927;-74
2022/01/23 00:47:51;;;;;;;;;;;;;;;;;;5078905;28;1244;-74
2022/01/23 00:50:16;;;;;;;;;;;;;;;;;;5092731;28;871;-74
2022/01/23 00:52:42;;;;;;;;;;;;;;;;;;5074486;28;1894;-74
2022/01/23 00:55:07;;;;;;;;;;;;;;;;;;5092143;28;920;-73
2022/01/23 00:57:33;;;;;;;;;;;;;;;;;;5092146;28;1031;-75
2022/01/23 00:59:59;;;;;;;;;;;;;;;;;;5092558;28;896;-74
2022/01/23 01:02:25;;;;;;;;;;;;;;;;;;5092298;28;849;-73
2022/01/23 01:04:50;;;;;;;;;;;;;;;;;;5092571;28;978;-74
2022/01/23 01:07:15;;;;;;;;;;;;;;;;;;5092086;28;978;-73
2022/01/23 01:09:43;;;;;;;;;;;;;;;;;;5092288;28;925;-73
2022/01/23 01:12:14;;;;;;;;;;;;;;;;;;5092243;28;824;-74
2022/01/23 01:14:59;;;;;;;;;;;;;;;;;;5091868;28;947;-73
2022/01/23 01:30:58;;;;;;;;;;;;;;;;;;5092327;28;674;-73
2022/01/23 01:36:51;;;;;;;;;;;;;;;;;;5092406;28;690;-73
2022/01/23 01:38:55;;;;;;;;;;;;;;;;;;5083374;28;1047;-73
2022/01/23 01:41:21;;;;;;;;;;;;;;;;;;5092112;28;1053;-73
2022/01/23 01:43:48;;;;;;;;;;;;;;;;;;5092346;28;956;-73
2022/01/23 01:46:13;;;;;;;;;;;;;;;;;;5090559;28;2338;-73
2022/01/23 01:48:39;;;;;;;;;;;;;;;;;;5091875;28;892;-73
2022/01/23 01:51:08;;;;;;;;;;;;;;;;;;5092236;28;857;-73
2022/01/23 01:53:34;;;;;;;;;;;;;;;;;;5091690;28;1956;-73
2022/01/23 01:55:59;;;;;;;;;;;;;;;;;;5091500;28;828;-73
2022/01/23 01:59:07;;;;;;;;;;;;;;;;;;5091411;28;876;-73
2022/01/23 02:09:49;;;;;;;;;;;;;;;;;;5091417;28;688;-73
2022/01/23 02:55:29;;;;;;;;;;;;;;;;;;5035430;28;1065;-74
2022/01/23 02:57:58;;;;;;;;;;;;;;;;;;5091461;28;1087;-74
2022/01/23 03:00:34;;;;;;;;;;;;;;;;;;5094995;28;916;-73
2022/01/23 03:03:09;;;;;;;;;;;;;;;;;;5095510;28;805;-73
2022/01/23 03:05:37;;;;;;;;;;;;;;;;;;5095131;28;844;-73
2022/01/23 03:08:31;;;;;;;;;;;;;;;;;;5077333;28;814;-74
2022/01/23 03:11:01;;;;;;;;;;;;;;;;;;5094319;28;1064;-73
2022/01/23 03:13:46;;;;;;;;;;;;;;;;;;5095082;28;1947;-74
2022/01/23 03:24:38;;;;;;;;;;;;;;;;;;5094663;28;762;-73
2022/01/23 03:27:25;;;;;;;;;;;;;;;;;;5084750;28;1702;-73
2022/01/23 03:30:13;;;;;;;;;;;;;;;;;;5073919;28;1424;-74
2022/01/23 03:32:43;;;;;;;;;;;;;;;;;;5059275;28;1914;-74
2022/01/23 03:35:08;;;;;;;;;;;;;;;;;;5071952;28;2992;-74
2022/01/23 03:37:33;;;;;;;;;;;;;;;;;;5073658;28;959;-73
2022/01/23 03:39:59;;;;;;;;;;;;;;;;;;5074272;28;881;-73
2022/01/23 03:42:25;;;;;;;;;;;;;;;;;;5073380;28;809;-73
2022/01/23 03:47:53;;;;;;;;;;;;;;;;;;5041705;28;1146;-74
2022/01/23 03:50:19;;;;;;;;;;;;;;;;;;5073416;28;954;-73
2022/01/23 03:52:44;;;;;;;;;;;;;;;;;;5055209;28;1894;-73
2022/01/23 03:55:09;;;;;;;;;;;;;;;;;;5073222;28;1035;-73
2022/01/23 03:57:35;;;;;;;;;;;;;;;;;;5073286;28;986;-73
2022/01/23 04:00:00;;;;;;;;;;;;;;;;;;5073022;28;1543;-73
2022/01/23 04:02:26;;;;;;;;;;;;;;;;;;5073435;28;892;-73
2022/01/23 04:04:51;;;;;;;;;;;;;;;;;;5073141;28;1249;-73
2022/01/23 04:07:20;;;;;;;;;;;;;;;;;;5072829;28;886;-73
2022/01/23 04:09:46;;;;;;;;;;;;;;;;;;5073112;28;844;-73
2022/01/23 04:12:25;;;;;;;;;;;;;;;;;;5073147;28;766;-73
2022/01/23 04:14:57;;;;;;;;;;;;;;;;;;5073137;28;856;-73
2022/01/23 04:20:05;;;;;;;;;;;;;;;;;;5073365;28;766;-73
2022/01/23 05:00:22;;;;;;;;;;;;;;;;;;5093299;28;655;-73
2022/01/23 05:05:34;;;;;;;;;;;;;;;;;;5092662;28;665;-73
2022/01/23 05:08:04;;;;;;;;;;;;;;;;;;5074135;28;2113;-73
2022/01/23 05:10:29;;;;;;;;;;;;;;;;;;5092630;28;1178;-73
2022/01/23 05:12:55;;;;;;;;;;;;;;;;;;5091982;28;1902;-73
2022/01/23 05:15:20;;;;;;;;;;;;;;;;;;5092178;28;881;-73
2022/01/23 05:17:45;;;;;;;;;;;;;;;;;;5092367;28;874;-74
2022/01/23 05:20:14;;;;;;;;;;;;;;;;;;5090943;28;915;-74
2022/01/23 05:22:45;;;;;;;;;;;;;;;;;;5090815;28;2369;-73
2022/01/23 05:25:31;;;;;;;;;;;;;;;;;;5091836;28;907;-74
2022/01/23 05:27:56;;;;;;;;;;;;;;;;;;5091827;28;1207;-73
2022/01/23 05:30:22;;;;;;;;;;;;;;;;;;5091562;28;927;-73
2022/01/23 05:32:48;;;;;;;;;;;;;;;;;;5091867;28;1914;-73
2022/01/23 05:35:14;;;;;;;;;;;;;;;;;;5091651;28;832;-73
2022/01/23 05:37:40;;;;;;;;;;;;;;;;;;5091932;28;750;-73
2022/01/23 05:40:06;;;;;;;;;;;;;;;;;;5091408;28;849;-73
2022/01/23 05:42:32;;;;;;;;;;;;;;;;;;5092353;28;836;-74
2022/01/23 05:44:57;;;;;;;;;;;;;;;;;;5073291;28;785;-73
2022/01/23 05:47:23;;;;;;;;;;;;;;;;;;5091492;28;904;-73
2022/01/23 05:49:48;;;;;;;;;;;;;;;;;;5073342;28;1452;-73
2022/01/23 05:52:15;;;;;;;;;;;;;;;;;;5072921;28;1031;-73
2022/01/23 05:54:41;;;;;;;;;;;;;;;;;;5091340;28;1987;-73
2022/01/23 05:57:06;;;;;;;;;;;;;;;;;;5090749;28;892;-73
2022/01/23 05:59:31;;;;;;;;;;;;;;;;;;5091292;28;852;-74
2022/01/23 06:01:57;;;;;;;;;;;;;;;;;;5090839;28;904;-73
2022/01/23 06:04:24;;;;;;;;;;;;;;;;;;5091257;28;769;-73
2022/01/23 06:06:50;;;;;;;;;;;;;;;;;;5091716;28;875;-74
2022/01/23 06:09:16;;;;;;;;;;;;;;;;;;5090893;28;963;-73
2022/01/23 06:11:41;;;;;;;;;;;;;;;;;;5091380;28;829;-73
2022/01/23 06:14:08;;;;;;;;;;;;;;;;;;5090708;28;1909;-73
2022/01/23 06:16:34;;;;;;;;;;;;;;;;;;5090808;28;880;-73
2022/01/23 06:18:59;;;;;;;;;;;;;;;;;;5090995;28;915;-73
2022/01/23 06:21:25;;;;;;;;;;;;;;;;;;5090937;28;1052;-73
2022/01/23 06:24:01;;;;;;;;;;;;;;;;;;5091160;28;938;-73
2022/01/23 06:26:35;;;;;;;;;;;;;;;;;;5090820;28;1316;-73
2022/01/23 06:29:02;;;;;;;;;;;;;;;;;;5072693;28;971;-73
2022/01/23 06:31:27;;;;;;;;;;;;;;;;;;5072729;28;1612;-73
2022/01/23 06:33:53;;;;;;;;;;;;;;;;;;5092134;28;1973;-73
2022/01/23 06:36:19;;;;;;;;;;;;;;;;;;5072650;28;1338;-73
2022/01/23 06:38:44;;;;;;;;;;;;;;;;;;5091136;28;967;-73
2022/01/23 06:41:09;;;;;;;;;;;;;;;;;;5090855;28;876;-73
2022/01/23 06:43:35;;;;;;;;;;;;;;;;;;5091144;28;912;-73
2022/01/23 06:46:00;;;;;;;;;;;;;;;;;;5090584;28;876;-73
2022/01/23 06:48:25;;;;;;;;;;;;;;;;;;5091345;28;879;-73
2022/01/23 06:50:51;;;;;;;;;;;;;;;;;;5073132;28;912;-73
2022/01/23 06:53:16;;;;;;;;;;;;;;;;;;5072866;28;1973;-73
2022/01/23 06:55:41;;;;;;;;;;;;;;;;;;5091968;28;907;-73
2022/01/23 06:58:06;;;;;;;;;;;;;;;;;;5090832;28;821;-73
2022/01/23 07:00:33;;;;;;;;;;;;;;;;;;5091753;28;821;-73
2022/01/23 07:02:58;;;;;;;;;;;;;;;;;;5091863;28;1039;-73
2022/01/23 07:05:23;;;;;;;;;;;;;;;;;;5090657;28;950;-73
2022/01/23 07:07:49;;;;;;;;;;;;;;;;;;5091288;28;837;-73
2022/01/23 07:10:16;;;;;;;;;;;;;;;;;;5090240;28;978;-73
2022/01/23 07:12:42;;;;;;;;;;;;;;;;;;5089069;28;3120;-80
2022/01/23 07:15:08;;;;;;;;;;;;;;;;;;5091379;28;804;-79
2022/01/23 07:17:37;;;;;;;;;;;;;;;;;;5090838;28;1200;-79
2022/01/23 07:20:03;;;;;;;;;;;;;;;;;;5091152;28;879;-80
2022/01/23 07:22:28;;;;;;;;;;;;;;;;;;5090851;28;900;-79
2022/01/23 07:25:00;;;;;;;;;;;;;;;;;;5091549;28;899;-79
2022/01/23 07:27:25;;;;;;;;;;;;;;;;;;5078324;28;1192;-79
2022/01/23 07:29:50;;;;;;;;;;;;;;;;;;5070589;28;758;-74
2022/01/23 07:32:16;;;;;;;;;;;;;;;;;;5069627;28;940;-74
2022/01/23 07:34:41;;;;;;;;;;;;;;;;;;5069997;28;1904;-74
2022/01/23 07:37:06;;;;;;;;;;;;;;;;;;5051843;28;915;-74
2022/01/23 07:39:32;;;;;;;;;;;;;;;;;;5070265;28;916;-73
2022/01/23 07:41:57;;;;;;;;;;;;;;;;;;5052097;28;885;-74
2022/01/23 07:44:22;;;;;;;;;;;;;;;;;;5053881;28;881;-74
2022/01/23 07:46:47;;;;;;;;;;;;;;;;;;5055957;28;841;-74
2022/01/23 07:49:13;;;;;;;;;;;;;;;;;;5073287;28;847;-74
2022/01/23 07:51:38;;;;;;;;;;;;;;;;;;5073848;28;924;-74
2022/01/23 07:54:04;;;;;;;;;;;;;;;;;;5073644;28;1905;-74
2022/01/23 07:56:29;;;;;;;;;;;;;;;;;;5072759;28;955;-74
2022/01/23 07:58:54;;;;;;;;;;;;;;;;;;5073938;28;889;-74
2022/01/23 08:01:20;;;;;;;;;;;;;;;;;;5073118;28;1007;-74
2022/01/23 08:03:45;;;;;;;;;;;;;;;;;;5054954;28;1208;-74
2022/01/23 08:06:13;;;;;;;;;;;;;;;;;;5073422;28;908;-73
2022/01/23 08:08:39;;;;;;;;;;;;;;;;;;5073263;28;896;-74
2022/01/23 08:11:04;;;;;;;;;;;;;;;;;;5073441;28;829;-74
2022/01/23 08:13:30;;;;;;;;;;;;;;;;;;5072944;28;1906;-74
2022/01/23 08:15:55;;;;;;;;;;;;;;;;;;5072859;28;896;-74
2022/01/23 08:18:20;;;;;;;;;;;;;;;;;;5072763;28;801;-73
2022/01/23 08:20:45;;;;;;;;;;;;;;;;;;5073348;28;888;-74
2022/01/23 08:23:12;;;;;;;;;;;;;;;;;;5054491;28;904;-73
2022/01/23 08:25:38;;;;;;;;;;;;;;;;;;5073464;28;1016;-73
2022/01/23 08:28:03;;;;;;;;;;;;;;;;;;5089930;28;1199;-74
2022/01/23 08:30:28;;;;;;;;;;;;;;;;;;5092723;28;921;-74
2022/01/23 08:32:54;;;;;;;;;;;;;;;;;;5093355;28;1910;-74
2022/01/23 08:35:20;;;;;;;;;;;;;;;;;;5093872;28;916;-73
2022/01/23 08:37:45;;;;;;;;;;;;;;;;;;5094711;28;923;-73
2022/01/23 08:40:22;;;;;;;;;;;;;;;;;;5058850;28;1471;-74
2022/01/23 08:45:31;;;;;;;;;;;;;;;;;;5077444;28;2921;-74
2022/01/23 08:47:56;;;;;;;;;;;;;;;;;;5055580;28;2380;-73
2022/01/23 08:50:21;;;;;;;;;;;;;;;;;;5073227;28;844;-74
2022/01/23 08:52:46;;;;;;;;;;;;;;;;;;5073503;28;1876;-73
2022/01/23 08:55:12;;;;;;;;;;;;;;;;;;5072463;28;983;-73
2022/01/23 08:57:37;;;;;;;;;;;;;;;;;;5073394;28;1014;-73
2022/01/23 09:00:04;;;;;;;;;;;;;;;;;;5073171;28;1209;-73
2022/01/23 09:02:29;;;;;;;;;;;;;;;;;;5072797;28;884;-73
2022/01/23 09:04:54;;;;;;;;;;;;;;;;;;5055612;28;984;-73
2022/01/23 09:07:20;;;;;;;;;;;;;;;;;;5073103;28;832;-73
2022/01/23 09:09:45;;;;;;;;;;;;;;;;;;5073191;28;1010;-73
2022/01/23 09:12:30;;;;;;;;;;;;;;;;;;5073129;28;912;-73
2022/01/23 09:14:55;;;;;;;;;;;;;;;;;;5073092;28;1906;-73
2022/01/23 09:17:21;;;;;;;;;;;;;;;;;;5073664;28;896;-74
2022/01/23 09:19:47;;;;;;;;;;;;;;;;;;5075065;28;870;-78
2022/01/23 09:22:13;;;;;;;;;;;;;;;;;;5058606;28;844;-79
2022/01/23 09:24:38;;;;;;;;;;;;;;;;;;5076619;28;932;-79
2022/01/23 09:27:06;;;;;;;;;;;;;;;;;;5085409;28;1399;-79
2022/01/23 09:29:37;;;;;;;;;;;;;;;;;;5097338;28;875;-78
2022/01/23 09:32:03;;;;;;;;;;;;;;;;;;5093806;28;828;-80
2022/01/23 09:34:31;;;;;;;;;;;;;;;;;;5092900;28;1909;-79
2022/01/23 09:36:58;;;;;;;;;;;;;;;;;;5093927;28;821;-79
2022/01/23 09:39:24;;;;;;;;;;;;;;;;;;5092490;28;828;-79
2022/01/23 09:41:51;;;;;;;;;;;;;;;;;;5093208;28;904;-78
2022/01/23 09:44:17;;;;;;;;;;;;;;;;;;5092822;28;912;-78
2022/01/23 09:46:44;;;;;;;;;;;;;;;;;;5093293;28;805;-78
2022/01/23 09:49:12;;;;;;;;;;;;;;;;;;5092843;28;900;-78
2022/01/23 09:51:40;;;;;;;;;;;;;;;;;;5091894;28;1058;-73
2022/01/23 09:54:06;;;;;;;;;;;;;;;;;;5092004;28;1902;-73
2022/01/23 09:56:34;;;;;;;;;;;;;;;;;;5092051;28;868;-73
2022/01/23 09:59:00;;;;;;;;;;;;;;;;;;5092181;28;913;-73
2022/01/23 10:01:25;;;;;;;;;;;;;;;;;;5092870;28;908;-73
2022/01/23 10:03:51;;;;;;;;;;;;;;;;;;5092320;28;841;-73
2022/01/23 10:06:16;;;;;;;;;;;;;;;;;;5074905;28;833;-73
2022/01/23 10:08:41;;;;;;;;;;;;;;;;;;5091752;28;900;-73
2022/01/23 10:11:11;;;;;;;;;;;;;;;;;;5091888;28;912;-73
2022/01/23 10:13:36;;;;;;;;;;;;;;;;;;5091360;28;1906;-73
2022/01/23 10:16:02;;;;;;;;;;;;;;;;;;5092309;28;987;-72
2022/01/23 10:18:27;;;;;;;;;;;;;;;;;;5091692;28;963;-73
2022/01/23 10:20:52;;;;;;;;;;;;;;;;;;5074052;28;849;-73
2022/01/23 10:23:18;;;;;;;;;;;;;;;;;;5091637;28;1025;-73
2022/01/23 10:25:43;;;;;;;;;;;;;;;;;;5091830;28;1024;-72
2022/01/23 10:28:16;;;;;;;;;;;;;;;;;;5057142;28;1402;-73
2022/01/23 10:30:45;;;;;;;;;;;;;;;;;;5092304;28;769;-73
2022/01/23 10:33:14;;;;;;;;;;;;;;;;;;5090809;28;2163;-74
2022/01/23 10:36:00;;;;;;;;;;;;;;;;;;5091743;28;891;-73
2022/01/23 10:38:27;;;;;;;;;;;;;;;;;;5080298;28;1610;-73
2022/01/23 10:41:05;;;;;;;;;;;;;;;;;;5091115;28;829;-74
2022/01/23 10:48:59;;;;;;;;;;;;;;;;;;5090923;28;2143;-73
2022/01/23 10:51:33;;;;;;;;;;;;;;;;;;5090568;28;931;-73
2022/01/23 10:54:09;;;;;;;;;;;;;;;;;;5073463;28;1905;-73
2022/01/23 10:56:39;;;;;;;;;;;;;;;;;;5091925;28;956;-74
2022/01/23 10:59:05;;;;;;;;;;;;;;;;;;5073462;28;947;-73
2022/01/23 11:01:30;;;;;;;;;;;;;;;;;;5090815;28;871;-73
2022/01/23 11:04:25;;;;;;;;;;;;;;;;;;5091063;28;793;-74
2022/01/23 11:06:51;;;;;;;;;;;;;;;;;;5068844;28;2782;-73
2022/01/23 11:09:17;;;;;;;;;;;;;;;;;;5090525;28;809;-73
2022/01/23 11:11:45;;;;;;;;;;;;;;;;;;5090572;28;866;-73
2022/01/23 11:19:43;;;;;;;;;;;;;;;;;;5092830;28;710;-73
2022/01/23 11:22:19;;;;;;;;;;;;;;;;;;5076567;28;1464;-73
2022/01/23 11:24:47;;;;;;;;;;;;;;;;;;5094446;28;857;-73
2022/01/23 11:27:13;;;;;;;;;;;;;;;;;;5094445;28;1232;-73
2022/01/23 11:29:58;;;;;;;;;;;;;;;;;;5094847;28;971;-73
2022/01/23 11:32:26;;;;;;;;;;;;;;;;;;5093993;28;1639;-73
2022/01/23 11:34:57;;;;;;;;;;;;;;;;;;5076407;28;1914;-73
2022/01/23 11:37:23;;;;;;;;;;;;;;;;;;5094886;28;933;-72
2022/01/23 11:39:54;;;;;;;;;;;;;;;;;;5076577;28;1119;-77
2022/01/23 11:56:28;;;;;;;;;;;;;;;;;;5094820;28;905;-77
2022/01/23 12:01:39;;;;;;;;;;;;;;;;;;5094329;28;924;-79
2022/01/23 12:04:16;;;;;;;;;;;;;;;;;;5076135;28;1572;-78
2022/01/23 12:06:42;;;;;;;;;;;;;;;;;;5075599;28;1015;-78
2022/01/23 12:09:11;;;;;;;;;;;;;;;;;;5094655;28;912;-78
2022/01/23 12:11:41;;;;;;;;;;;;;;;;;;5094802;28;892;-78
2022/01/23 12:16:53;;;;;;;;;;;;;;;;;;5094677;28;682;-77
2022/01/23 12:19:20;;;;;;;;;;;;;;;;;;5076160;28;900;-76
2022/01/23 12:21:46;;;;;;;;;;;;;;;;;;5094268;28;912;-77
2022/01/23 12:24:13;;;;;;;;;;;;;;;;;;5094219;28;1069;-77
2022/01/23 12:26:39;;;;;;;;;;;;;;;;;;5094318;28;1054;-77
2022/01/23 12:29:18;;;;;;;;;;;;;;;;;;5075731;28;1100;-77
2022/01/23 12:31:44;;;;;;;;;;;;;;;;;;5094108;28;781;-77
2022/01/23 12:34:09;;;;;;;;;;;;;;;;;;5076040;28;1901;-78
2022/01/23 12:36:37;;;;;;;;;;;;;;;;;;5075759;28;1284;-78
2022/01/23 12:39:08;;;;;;;;;;;;;;;;;;5093952;28;987;-76
2022/01/23 12:41:37;;;;;;;;;;;;;;;;;;5093797;28;828;-76
2022/01/23 12:47:03;;;;;;;;;;;;;;;;;;5094034;28;830;-78
2022/01/23 12:49:30;;;;;;;;;;;;;;;;;;5093501;28;754;-77
2022/01/23 12:52:01;;;;;;;;;;;;;;;;;;5094082;28;824;-80
2022/01/23 12:54:27;;;;;;;;;;;;;;;;;;5092250;28;2391;-75
2022/01/23 12:56:54;;;;;;;;;;;;;;;;;;5075125;28;855;-78
2022/01/23 12:59:25;;;;;;;;;;;;;;;;;;5093999;28;833;-77
2022/01/23 13:01:57;;;;;;;;;;;;;;;;;;5093561;28;899;-78
2022/01/23 13:04:23;;;;;;;;;;;;;;;;;;5093612;28;829;-78
2022/01/23 13:06:56;;;;;;;;;;;;;;;;;;5075577;28;1306;-78
2022/01/23 13:09:29;;;;;;;;;;;;;;;;;;5093798;28;816;-78
2022/01/23 13:15:43;;;;;;;;;;;;;;;;;;5075512;28;1971;-74
2022/01/23 13:31:57;;;;;;;;;;;;;;;;;;5092227;28;812;-72
2022/01/23 13:34:25;;;;;;;;;;;;;;;;;;5092108;28;2002;-72
2022/01/23 13:36:53;;;;;;;;;;;;;;;;;;5091962;28;884;-72
2022/01/23 13:39:23;;;;;;;;;;;;;;;;;;5073621;28;1253;-72
2022/01/23 13:59:19;;;;;;;;;;;;;;;;;;5092424;28;688;-73
2022/01/23 14:01:55;;;;;;;;;;;;;;;;;;5092272;28;844;-73
2022/01/23 14:04:21;;;;;;;;;;;;;;;;;;5092664;28;856;-73
2022/01/23 14:06:47;;;;;;;;;;;;;;;;;;5091385;28;2448;-73
2022/01/23 14:09:13;;;;;;;;;;;;;;;;;;5071899;28;884;-73
2022/01/23 14:11:39;;;;;;;;;;;;;;;;;;5072652;28;911;-72
2022/01/23 14:14:28;;;;;;;;;;;;;;;;;;5072721;28;1909;-76
2022/01/23 14:16:54;;;;;;;;;;;;;;;;;;5049102;28;1374;-72
2022/01/23 14:19:25;;;;;;;;;;;;;;;;;;5071430;28;991;-73
2022/01/23 14:21:51;;;;;;;;;;;;;;;;;;5071884;28;1223;-73
2022/01/23 14:24:21;;;;;;;;;;;;;;;;;;5051458;28;3036;-72
2022/01/23 14:27:00;;;;;;;;;;;;;;;;;;5096443;28;1334;-73
2022/01/23 14:29:26;;;;;;;;;;;;;;;;;;5091008;28;858;-73
2022/01/23 14:32:04;;;;;;;;;;;;;;;;;;5091564;28;832;-73
2022/01/23 14:34:29;;;;;;;;;;;;;;;;;;5072717;28;1910;-73
2022/01/23 14:36:55;;;;;;;;;;;;;;;;;;5091450;28;884;-73
2022/01/23 14:39:23;;;;;;;;;;;;;;;;;;5091607;28;899;-73
2022/01/23 14:41:49;;;;;;;;;;;;;;;;;;5073935;28;1543;-72
2022/01/23 14:44:16;;;;;;;;;;;;;;;;;;5091266;28;836;-73
2022/01/23 14:46:41;;;;;;;;;;;;;;;;;;5072920;28;852;-72
2022/01/23 14:49:10;;;;;;;;;;;;;;;;;;5091169;28;912;-73
2022/01/23 14:51:37;;;;;;;;;;;;;;;;;;5090713;28;915;-73
2022/01/23 14:54:02;;;;;;;;;;;;;;;;;;5094076;28;1901;-73
2022/01/23 14:56:29;;;;;;;;;;;;;;;;;;5094776;28;928;-73
2022/01/23 14:58:55;;;;;;;;;;;;;;;;;;5095587;28;921;-73
2022/01/23 15:01:21;;;;;;;;;;;;;;;;;;5095499;28;812;-73
2022/01/23 15:03:53;;;;;;;;;;;;;;;;;;5095328;28;852;-73
2022/01/23 15:06:22;;;;;;;;;;;;;;;;;;5076343;28;1259;-74
2022/01/23 15:08:48;;;;;;;;;;;;;;;;;;5095211;28;845;-73
2022/01/23 15:11:14;;;;;;;;;;;;;;;;;;5095058;28;960;-73
2022/01/23 15:13:39;;;;;;;;;;;;;;;;;;5094721;28;1965;-73
2022/01/23 15:16:04;;;;;;;;;;;;;;;;;;5076571;28;943;-72
2022/01/23 15:18:30;;;;;;;;;;;;;;;;;;5094950;28;1018;-73
2022/01/23 15:20:55;;;;;;;;;;;;;;;;;;5095494;28;808;-73
2022/01/23 15:23:20;;;;;;;;;;;;;;;;;;5076010;28;775;-73
2022/01/23 15:25:46;;;;;;;;;;;;;;;;;;5094772;28;1056;-74
2022/01/23 15:28:11;;;;;;;;;;;;;;;;;;5076267;28;1217;-73
2022/01/23 15:30:38;;;;;;;;;;;;;;;;;;5094965;28;848;-73
2022/01/23 15:33:06;;;;;;;;;;;;;;;;;;5094679;28;1926;-73
2022/01/23 15:35:32;;;;;;;;;;;;;;;;;;5076709;28;856;-73
2022/01/23 15:37:57;;;;;;;;;;;;;;;;;;5095174;28;978;-74
2022/01/23 15:40:24;;;;;;;;;;;;;;;;;;5076281;28;815;-72
2022/01/23 15:42:50;;;;;;;;;;;;;;;;;;5094944;28;837;-73
2022/01/23 15:45:16;;;;;;;;;;;;;;;;;;5093424;28;1216;-73
2022/01/23 15:47:41;;;;;;;;;;;;;;;;;;5095168;28;816;-73
2022/01/23 15:50:08;;;;;;;;;;;;;;;;;;5094894;28;950;-73
2022/01/23 15:52:33;;;;;;;;;;;;;;;;;;5095125;28;907;-73
2022/01/23 15:54:59;;;;;;;;;;;;;;;;;;5095145;28;1874;-73
2022/01/23 15:57:24;;;;;;;;;;;;;;;;;;5089537;28;2877;-73
2022/01/23 15:59:50;;;;;;;;;;;;;;;;;;5076407;28;1030;-72
2022/01/23 16:02:15;;;;;;;;;;;;;;;;;;5094104;28;864;-74
2022/01/23 16:04:40;;;;;;;;;;;;;;;;;;5058926;28;1195;-73
2022/01/23 16:07:09;;;;;;;;;;;;;;;;;;5094438;28;939;-73
2022/01/23 16:09:34;;;;;;;;;;;;;;;;;;5093946;28;812;-73
2022/01/23 16:12:00;;;;;;;;;;;;;;;;;;5094481;28;825;-73
2022/01/23 16:14:27;;;;;;;;;;;;;;;;;;5093592;28;1961;-73
2022/01/23 16:16:52;;;;;;;;;;;;;;;;;;5094530;28;927;-76
2022/01/23 16:19:18;;;;;;;;;;;;;;;;;;5076757;28;1164;-76
2022/01/23 16:21:44;;;;;;;;;;;;;;;;;;5094537;28;1128;-76
2022/01/23 16:24:10;;;;;;;;;;;;;;;;;;5076372;28;1211;-76
2022/01/23 16:26:35;;;;;;;;;;;;;;;;;;5095063;28;1048;-77
2022/01/23 16:29:01;;;;;;;;;;;;;;;;;;5075610;28;1238;-77
2022/01/23 16:31:26;;;;;;;;;;;;;;;;;;5076145;28;1336;-77
2022/01/23 16:33:52;;;;;;;;;;;;;;;;;;5094923;28;1906;-77
2022/01/23 16:36:17;;;;;;;;;;;;;;;;;;5094418;28;1026;-76
2022/01/23 16:38:42;;;;;;;;;;;;;;;;;;5094708;28;880;-77
2022/01/23 16:41:08;;;;;;;;;;;;;;;;;;5076493;28;1085;-77
2022/01/23 16:43:34;;;;;;;;;;;;;;;;;;5076172;28;1317;-78
2022/01/23 16:46:00;;;;;;;;;;;;;;;;;;5093898;28;899;-78
2022/01/23 16:48:26;;;;;;;;;;;;;;;;;;5075476;28;1301;-78
2022/01/23 16:50:52;;;;;;;;;;;;;;;;;;5094274;28;884;-79
2022/01/23 16:53:17;;;;;;;;;;;;;;;;;;5094122;28;1972;-78
2022/01/23 16:55:42;;;;;;;;;;;;;;;;;;5094192;28;916;-79
2022/01/23 16:58:09;;;;;;;;;;;;;;;;;;5076038;28;1309;-78
2022/01/23 17:00:35;;;;;;;;;;;;;;;;;;5094194;28;830;-78
2022/01/23 17:03:00;;;;;;;;;;;;;;;;;;5094286;28;860;-77
2022/01/23 17:05:26;;;;;;;;;;;;;;;;;;5074622;28;1414;-79
2022/01/23 17:07:51;;;;;;;;;;;;;;;;;;5094247;28;988;-78
2022/01/23 17:10:16;;;;;;;;;;;;;;;;;;5093805;28;875;-78
2022/01/23 17:12:42;;;;;;;;;;;;;;;;;;5075687;28;1176;-78
2022/01/23 17:15:07;;;;;;;;;;;;;;;;;;5075741;28;1913;-78
2022/01/23 17:17:33;;;;;;;;;;;;;;;;;;5092437;28;850;-78
2022/01/23 17:19:58;;;;;;;;;;;;;;;;;;5094121;28;932;-78
2022/01/23 17:22:24;;;;;;;;;;;;;;;;;;5093330;28;1023;-78
2022/01/23 17:24:49;;;;;;;;;;;;;;;;;;5093478;28;917;-78
2022/01/23 17:27:15;;;;;;;;;;;;;;;;;;5093577;28;1556;-78
2022/01/23 17:29:40;;;;;;;;;;;;;;;;;;5092586;28;853;-73
2022/01/23 17:32:08;;;;;;;;;;;;;;;;;;5093176;28;840;-73
2022/01/23 17:34:34;;;;;;;;;;;;;;;;;;5092442;28;1961;-73
2022/01/23 17:37:00;;;;;;;;;;;;;;;;;;5074610;28;1222;-72
2022/01/23 17:39:25;;;;;;;;;;;;;;;;;;5092757;28;920;-73
2022/01/23 17:41:50;;;;;;;;;;;;;;;;;;5075021;28;948;-73
2022/01/23 17:44:15;;;;;;;;;;;;;;;;;;5092726;28;817;-73
2022/01/23 17:46:41;;;;;;;;;;;;;;;;;;5073704;28;3165;-73
2022/01/23 17:49:10;;;;;;;;;;;;;;;;;;5075868;28;2542;-73
2022/01/23 17:51:36;;;;;;;;;;;;;;;;;;5070165;28;840;-73
2022/01/23 17:54:03;;;;;;;;;;;;;;;;;;5092344;28;1970;-73
2022/01/23 17:56:29;;;;;;;;;;;;;;;;;;5092319;28;884;-73
2022/01/23 17:58:55;;;;;;;;;;;;;;;;;;5074076;28;892;-74
2022/01/23 18:01:20;;;;;;;;;;;;;;;;;;5092421;28;939;-73
2022/01/23 18:03:45;;;;;;;;;;;;;;;;;;5074126;28;1284;-72
2022/01/23 18:06:22;;;;;;;;;;;;;;;;;;5092035;28;777;-72
2022/01/23 18:08:48;;;;;;;;;;;;;;;;;;5092092;28;864;-73
2022/01/23 18:11:13;;;;;;;;;;;;;;;;;;5092315;28;804;-73
2022/01/23 18:13:43;;;;;;;;;;;;;;;;;;5091100;28;1924;-73
2022/01/23 18:16:09;;;;;;;;;;;;;;;;;;5073306;28;1773;-73
2022/01/23 18:18:34;;;;;;;;;;;;;;;;;;5090785;28;1022;-73
2022/01/23 18:20:59;;;;;;;;;;;;;;;;;;5092043;28;911;-73
2022/01/23 18:23:24;;;;;;;;;;;;;;;;;;5091541;28;912;-73
2022/01/23 18:25:51;;;;;;;;;;;;;;;;;;5094437;28;963;-73
2022/01/23 18:28:16;;;;;;;;;;;;;;;;;;5097692;28;1303;-73
2022/01/23 18:30:42;;;;;;;;;;;;;;;;;;5097074;28;867;-73
2022/01/23 18:33:07;;;;;;;;;;;;;;;;;;5062143;28;1977;-73
2022/01/23 18:35:33;;;;;;;;;;;;;;;;;;5095384;28;1019;-73
2022/01/23 18:37:58;;;;;;;;;;;;;;;;;;5078477;28;833;-72
2022/01/23 18:40:23;;;;;;;;;;;;;;;;;;5098171;28;840;-73
2022/01/23 18:42:49;;;;;;;;;;;;;;;;;;5097750;28;813;-75
2022/01/23 18:45:14;;;;;;;;;;;;;;;;;;5098481;28;793;-74
2022/01/23 18:47:40;;;;;;;;;;;;;;;;;;5099297;28;887;-73
2022/01/23 18:50:06;;;;;;;;;;;;;;;;;;5079955;28;1042;-73
2022/01/23 18:52:34;;;;;;;;;;;;;;;;;;5096157;28;995;-72
2022/01/23 18:55:05;;;;;;;;;;;;;;;;;;5098540;28;1882;-73
2022/01/23 18:57:38;;;;;;;;;;;;;;;;;;5095007;28;824;-73
2022/01/23 19:00:09;;;;;;;;;;;;;;;;;;5074231;28;825;-72
2022/01/23 19:02:41;;;;;;;;;;;;;;;;;;5091151;28;845;-74
2022/01/23 19:05:10;;;;;;;;;;;;;;;;;;5091601;28;758;-73
2022/01/23 19:07:46;;;;;;;;;;;;;;;;;;5072616;28;1085;-73
2022/01/23 19:10:11;;;;;;;;;;;;;;;;;;5075770;28;825;-80
2022/01/23 19:12:39;;;;;;;;;;;;;;;;;;5092549;28;904;-77
2022/01/23 19:15:05;;;;;;;;;;;;;;;;;;5093552;28;1894;-79
2022/01/23 19:17:30;;;;;;;;;;;;;;;;;;5094179;28;908;-84
2022/01/23 19:19:55;;;;;;;;;;;;;;;;;;5094417;28;794;-76
2022/01/23 19:22:21;;;;;;;;;;;;;;;;;;5092997;28;915;-78
2022/01/23 19:24:47;;;;;;;;;;;;;;;;;;5073916;28;1263;-73
2022/01/23 19:27:16;;;;;;;;;;;;;;;;;;5068356;28;3252;-74
2022/01/23 19:29:42;;;;;;;;;;;;;;;;;;5085443;28;2643;-73
2022/01/23 19:32:08;;;;;;;;;;;;;;;;;;5078240;28;2878;-74
2022/01/23 19:34:36;;;;;;;;;;;;;;;;;;5081085;28;3274;-73
2022/01/23 19:37:02;;;;;;;;;;;;;;;;;;5081025;28;2847;-73
2022/01/23 19:39:29;;;;;;;;;;;;;;;;;;5071031;28;3541;-73
2022/01/23 19:42:13;;;;;;;;;;;;;;;;;;5085757;28;2838;-72
2022/01/23 19:44:46;;;;;;;;;;;;;;;;;;5089398;28;2730;-74
2022/01/23 19:49:41;;;;;;;;;;;;;;;;;;5078079;28;3185;-73
2022/01/23 19:52:07;;;;;;;;;;;;;;;;;;5075064;28;3147;-74
2022/01/23 19:54:32;;;;;;;;;;;;;;;;;;5074281;28;1910;-74
2022/01/23 19:56:57;;;;;;;;;;;;;;;;;;5061938;28;3175;-73
2022/01/23 19:59:29;;;;;;;;;;;;;;;;;;5093727;28;3150;-73
2022/01/23 20:01:54;;;;;;;;;;;;;;;;;;5076648;28;1082;-74
2022/01/23 20:04:20;;;;;;;;;;;;;;;;;;5083517;28;2957;-74
2022/01/23 20:06:45;;;;;;;;;;;;;;;;;;5080481;28;2612;-73
2022/01/23 20:09:10;;;;;;;;;;;;;;;;;;5094993;28;832;-73
2022/01/23 20:14:08;;;;;;;;;;;;;;;;;;5076651;28;2819;-73
2022/01/23 20:16:33;;;;;;;;;;;;;;;;;;5084644;28;2655;-72
2022/01/23 20:19:00;;;;;;;;;;;;;;;;;;5084877;28;3400;-73
2022/01/23 20:21:25;;;;;;;;;;;;;;;;;;5082214;28;3464;-73
2022/01/23 20:23:51;;;;;;;;;;;;;;;;;;5079731;28;2644;-73
2022/01/23 20:26:16;;;;;;;;;;;;;;;;;;5073491;28;995;-73
2022/01/23 20:28:41;;;;;;;;;;;;;;;;;;5079955;28;3616;-73
2022/01/23 20:31:06;;;;;;;;;;;;;;;;;;5077449;28;3403;-73
2022/01/23 20:33:32;;;;;;;;;;;;;;;;;;5085947;28;2957;-74
2022/01/23 20:35:57;;;;;;;;;;;;;;;;;;5093457;28;1289;-73
2022/01/23 20:38:22;;;;;;;;;;;;;;;;;;5093647;28;2940;-73
2022/01/23 20:43:32;;;;;;;;;;;;;;;;;;5090185;28;3354;-73
2022/01/23 20:45:57;;;;;;;;;;;;;;;;;;5057116;28;3291;-73